createdAt,value
2022-12-28T00:00:51.664Z,4.98
2022-12-28T00:01:51.729Z,4.99
2022-12-28T00:02:51.638Z,4.99
2022-12-28T00:03:51.649Z,5.00
2022-12-28T00:04:51.606Z,5.01
2022-12-28T00:05:51.610Z,5.01
2022-12-28T00:06:51.599Z,5.02
2022-12-28T00:07:51.605Z,5.03
2022-12-28T00:08:51.572Z,5.03
2022-12-28T00:09:51.561Z,5.04
2022-12-28T00:11:08.392Z,5.04
2022-12-28T00:11:52.569Z,5.04
2022-12-28T00:12:51.519Z,5.04
2022-12-28T00:13:51.526Z,5.05
2022-12-28T00:14:51.495Z,5.06
2022-12-28T00:15:51.496Z,5.07
2022-12-28T00:16:51.493Z,5.08
2022-12-28T00:17:51.485Z,5.09
2022-12-28T00:18:51.454Z,5.10
2022-12-28T00:19:51.463Z,5.11
2022-12-28T00:20:51.437Z,5.11
2022-12-28T00:21:51.445Z,5.11
2022-12-28T00:22:51.418Z,5.11
2022-12-28T00:23:51.423Z,5.12
2022-12-28T00:24:51.378Z,5.12
2022-12-28T00:25:51.392Z,5.13
2022-12-28T00:26:51.379Z,5.13
2022-12-28T00:27:51.372Z,5.14
2022-12-28T00:28:51.334Z,5.16
2022-12-28T00:29:51.352Z,5.17
2022-12-28T00:30:51.316Z,5.18
2022-12-28T00:31:51.503Z,5.19
2022-12-28T00:32:51.294Z,5.20
2022-12-28T00:33:51.291Z,5.21
2022-12-28T00:34:51.279Z,5.21
2022-12-28T00:35:51.270Z,5.23
2022-12-28T00:37:09.632Z,5.24
2022-12-28T00:37:52.252Z,5.25
2022-12-28T00:38:51.226Z,5.27
2022-12-28T00:39:51.238Z,5.28
2022-12-28T00:40:51.209Z,5.29
2022-12-28T00:41:51.217Z,5.29
2022-12-28T00:42:51.182Z,5.30
2022-12-28T00:43:51.183Z,5.30
2022-12-28T00:44:51.152Z,5.31
2022-12-28T00:45:51.202Z,5.31
2022-12-28T00:46:51.155Z,5.32
2022-12-28T00:47:51.160Z,5.32
2022-12-28T00:48:51.141Z,5.33
2022-12-28T00:49:51.142Z,5.34
2022-12-28T00:50:51.134Z,5.34
2022-12-28T00:51:51.099Z,5.35
2022-12-28T00:52:51.082Z,5.35
2022-12-28T00:53:51.090Z,5.35
2022-12-28T00:54:51.063Z,5.36
2022-12-28T00:55:51.060Z,5.36
2022-12-28T00:56:51.044Z,5.36
2022-12-28T00:57:51.034Z,5.36
2022-12-28T00:58:51.004Z,5.36
2022-12-28T00:59:51.037Z,5.36
2022-12-28T01:00:51.000Z,5.36
2022-12-28T01:01:51.102Z,5.37
2022-12-28T01:02:50.980Z,5.38
2022-12-28T01:03:50.980Z,5.39
2022-12-28T01:04:50.934Z,5.41
2022-12-28T01:05:50.967Z,5.41
2022-12-28T01:06:50.951Z,5.42
2022-12-28T01:07:50.940Z,5.42
2022-12-28T01:08:50.900Z,5.43
2022-12-28T01:09:50.899Z,5.43
2022-12-28T01:10:50.881Z,5.44
2022-12-28T01:11:50.919Z,5.44
2022-12-28T01:12:50.865Z,5.45
2022-12-28T01:13:50.869Z,5.46
2022-12-28T01:14:50.828Z,5.47
2022-12-28T01:15:50.828Z,5.48
2022-12-28T01:16:50.898Z,5.48
2022-12-28T01:17:50.810Z,5.49
2022-12-28T01:18:50.790Z,5.50
2022-12-28T01:19:54.024Z,5.50
2022-12-28T01:20:50.756Z,5.51
2022-12-28T01:21:50.768Z,5.52
2022-12-28T01:22:50.729Z,5.52
2022-12-28T01:23:50.737Z,5.53
2022-12-28T01:24:50.700Z,5.54
2022-12-28T01:25:50.708Z,5.55
2022-12-28T01:26:50.699Z,5.55
2022-12-28T01:27:50.689Z,5.56
2022-12-28T01:28:50.686Z,5.57
2022-12-28T01:29:50.676Z,5.57
2022-12-28T01:30:50.637Z,5.58
2022-12-28T01:31:50.716Z,5.59
2022-12-28T01:32:50.620Z,5.59
2022-12-28T01:33:50.624Z,5.60
2022-12-28T01:34:50.592Z,5.60
2022-12-28T01:35:50.588Z,5.61
2022-12-28T01:36:50.580Z,5.61
2022-12-28T01:37:50.570Z,5.62
2022-12-28T01:38:50.539Z,5.62
2022-12-28T01:39:50.553Z,5.62
2022-12-28T01:40:50.521Z,5.62
2022-12-28T01:41:50.540Z,5.63
2022-12-28T01:42:50.507Z,5.63
2022-12-28T01:43:50.500Z,5.63
2022-12-28T01:44:50.477Z,5.64
2022-12-28T01:45:50.542Z,5.64
2022-12-28T01:46:50.470Z,5.65
2022-12-28T01:47:50.459Z,5.65
2022-12-28T01:48:50.430Z,5.65
2022-12-28T01:49:50.429Z,5.66
2022-12-28T01:50:50.408Z,5.66
2022-12-28T01:51:50.418Z,5.67
2022-12-28T01:52:50.400Z,5.67
2022-12-28T01:53:50.393Z,5.67
2022-12-28T01:54:50.367Z,5.67
2022-12-28T01:55:50.365Z,5.67
2022-12-28T01:56:50.347Z,5.67
2022-12-28T01:57:50.367Z,5.67
2022-12-28T01:58:50.326Z,5.68
2022-12-28T01:59:50.328Z,5.68
2022-12-28T02:00:50.335Z,5.68
2022-12-28T02:01:50.434Z,5.69
2022-12-28T02:02:50.319Z,5.70
2022-12-28T02:03:50.284Z,5.70
2022-12-28T02:04:50.251Z,5.71
2022-12-28T02:05:50.253Z,5.71
2022-12-28T02:06:50.229Z,5.72
2022-12-28T02:07:50.223Z,5.73
2022-12-28T02:08:50.221Z,5.74
2022-12-28T02:10:43.852Z,5.74
2022-12-28T02:10:51.176Z,5.76
2022-12-28T02:11:50.209Z,5.77
2022-12-28T02:12:50.190Z,5.79
2022-12-28T02:13:50.170Z,5.81
2022-12-28T02:14:50.147Z,5.83
2022-12-28T02:15:50.138Z,5.84
2022-12-28T02:16:50.121Z,5.85
2022-12-28T02:17:50.116Z,5.86
2022-12-28T02:18:50.103Z,5.87
2022-12-28T02:19:50.091Z,5.89
2022-12-28T02:20:50.088Z,5.91
2022-12-28T02:21:50.080Z,5.92
2022-12-28T02:22:50.046Z,5.94
2022-12-28T02:23:50.067Z,5.95
2022-12-28T02:24:50.011Z,5.97
2022-12-28T02:25:51.037Z,5.98
2022-12-28T02:26:49.985Z,5.99
2022-12-28T02:27:49.990Z,6.02
2022-12-28T02:28:49.968Z,6.04
2022-12-28T02:29:49.984Z,6.05
2022-12-28T02:30:49.982Z,6.07
2022-12-28T02:31:49.957Z,6.07
2022-12-28T02:32:49.927Z,6.08
2022-12-28T02:33:49.941Z,6.08
2022-12-28T02:34:49.912Z,6.09
2022-12-28T02:35:49.908Z,6.09
2022-12-28T02:36:49.876Z,6.09
2022-12-28T02:37:49.885Z,6.10
2022-12-28T02:38:49.850Z,6.10
2022-12-28T02:39:49.881Z,6.10
2022-12-28T02:40:49.828Z,6.10
2022-12-28T02:41:49.835Z,6.10
2022-12-28T02:42:49.818Z,6.11
2022-12-28T02:43:49.814Z,6.12
2022-12-28T02:44:49.801Z,6.12
2022-12-28T02:45:49.869Z,6.13
2022-12-28T02:46:49.766Z,6.14
2022-12-28T02:47:49.769Z,6.14
2022-12-28T02:48:49.737Z,6.15
2022-12-28T02:49:49.741Z,6.16
2022-12-28T02:50:49.734Z,6.17
2022-12-28T02:51:49.716Z,6.19
2022-12-28T02:52:49.689Z,6.20
2022-12-28T02:53:49.701Z,6.21
2022-12-28T02:54:49.673Z,6.21
2022-12-28T02:55:49.687Z,6.22
2022-12-28T02:56:49.640Z,6.24
2022-12-28T02:57:49.640Z,6.25
2022-12-28T02:58:49.634Z,6.25
2022-12-28T02:59:49.626Z,6.25
2022-12-28T03:00:49.622Z,6.26
2022-12-28T03:01:49.694Z,6.26
2022-12-28T03:02:49.694Z,6.26
2022-12-28T03:03:49.581Z,6.27
2022-12-28T03:04:49.552Z,6.28
2022-12-28T03:05:49.553Z,6.28
2022-12-28T03:06:49.541Z,6.29
2022-12-28T03:07:49.531Z,6.29
2022-12-28T03:08:49.499Z,6.30
2022-12-28T03:09:49.510Z,6.31
2022-12-28T03:10:49.483Z,6.32
2022-12-28T03:11:49.504Z,6.33
2022-12-28T03:12:49.449Z,6.34
2022-12-28T03:13:49.461Z,6.35
2022-12-28T03:14:49.437Z,6.36
2022-12-28T03:15:49.491Z,6.38
2022-12-28T03:16:49.432Z,6.39
2022-12-28T03:17:49.413Z,6.40
2022-12-28T03:18:49.391Z,6.41
2022-12-28T03:19:49.390Z,6.41
2022-12-28T03:20:49.371Z,6.42
2022-12-28T03:21:49.387Z,6.42
2022-12-28T03:22:49.357Z,6.42
2022-12-28T03:23:49.350Z,6.43
2022-12-28T03:24:49.322Z,6.44
2022-12-28T03:25:49.331Z,6.46
2022-12-28T03:26:49.306Z,6.47
2022-12-28T03:27:49.306Z,6.49
2022-12-28T03:28:49.283Z,6.51
2022-12-28T03:29:49.278Z,6.53
2022-12-28T03:30:49.283Z,6.54
2022-12-28T03:31:49.264Z,6.55
2022-12-28T03:32:49.248Z,6.56
2022-12-28T03:33:49.238Z,6.58
2022-12-28T03:34:49.198Z,6.59
2022-12-28T03:35:49.217Z,6.60
2022-12-28T03:36:49.178Z,6.61
2022-12-28T03:37:49.207Z,6.63
2022-12-28T03:38:49.173Z,6.66
2022-12-28T03:39:49.168Z,6.67
2022-12-28T03:40:49.157Z,6.69
2022-12-28T03:41:49.120Z,6.71
2022-12-28T03:42:49.135Z,6.72
2022-12-28T03:43:49.131Z,6.73
2022-12-28T03:44:49.109Z,6.73
2022-12-28T03:45:49.092Z,6.72
2022-12-28T03:46:49.094Z,6.72
2022-12-28T03:47:49.071Z,6.72
2022-12-28T03:48:49.055Z,6.72
2022-12-28T03:49:49.056Z,6.73
2022-12-28T03:50:49.056Z,6.74
2022-12-28T03:51:49.018Z,6.74
2022-12-28T03:52:49.023Z,6.75
2022-12-28T03:53:49.005Z,6.76
2022-12-28T03:54:49.014Z,6.77
2022-12-28T03:55:48.982Z,6.78
2022-12-28T03:56:48.979Z,6.80
2022-12-28T03:57:48.939Z,6.82
2022-12-28T03:58:48.946Z,6.83
2022-12-28T03:59:48.935Z,6.84
2022-12-28T04:00:48.927Z,6.85
2022-12-28T04:01:49.004Z,6.85
2022-12-28T04:02:48.978Z,6.85
2022-12-28T04:03:48.885Z,6.85
2022-12-28T04:04:48.908Z,6.85
2022-12-28T04:05:48.867Z,6.86
2022-12-28T04:06:48.862Z,6.87
2022-12-28T04:07:48.820Z,6.87
2022-12-28T04:08:48.840Z,6.88
2022-12-28T04:09:48.818Z,6.89
2022-12-28T04:10:48.808Z,6.89
2022-12-28T04:11:48.784Z,6.89
2022-12-28T04:12:48.787Z,6.90
2022-12-28T04:13:48.780Z,6.90
2022-12-28T04:14:48.773Z,6.90
2022-12-28T04:15:48.758Z,6.91
2022-12-28T04:16:48.741Z,6.93
2022-12-28T04:17:48.716Z,6.95
2022-12-28T04:18:48.726Z,6.97
2022-12-28T04:19:48.722Z,6.98
2022-12-28T04:20:48.700Z,6.98
2022-12-28T04:21:48.664Z,6.99
2022-12-28T04:22:48.668Z,7.00
2022-12-28T04:23:48.645Z,7.01
2022-12-28T04:24:48.660Z,7.02
2022-12-28T04:25:48.621Z,7.03
2022-12-28T04:26:48.638Z,7.03
2022-12-28T04:27:48.605Z,7.04
2022-12-28T04:28:48.612Z,7.04
2022-12-28T04:29:48.590Z,7.05
2022-12-28T04:30:48.602Z,7.06
2022-12-28T04:31:48.555Z,7.08
2022-12-28T04:32:48.559Z,7.09
2022-12-28T04:33:48.538Z,7.11
2022-12-28T04:34:49.146Z,7.14
2022-12-28T04:35:48.540Z,7.17
2022-12-28T04:36:48.522Z,7.19
2022-12-28T04:37:48.488Z,7.20
2022-12-28T04:38:48.492Z,7.22
2022-12-28T04:39:55.396Z,7.23
2022-12-28T04:40:49.481Z,7.24
2022-12-28T04:41:48.450Z,7.25
2022-12-28T04:42:48.442Z,7.26
2022-12-28T04:43:48.415Z,7.27
2022-12-28T04:44:48.436Z,7.28
2022-12-28T04:45:48.421Z,7.29
2022-12-28T04:46:48.447Z,7.30
2022-12-28T04:47:48.382Z,7.31
2022-12-28T04:48:48.388Z,7.32
2022-12-28T04:49:48.380Z,7.34
2022-12-28T04:50:48.361Z,7.35
2022-12-28T04:51:48.339Z,7.37
2022-12-28T04:52:48.331Z,7.39
2022-12-28T04:53:48.304Z,7.40
2022-12-28T04:54:48.323Z,7.41
2022-12-28T04:55:48.301Z,7.41
2022-12-28T04:56:48.292Z,7.41
2022-12-28T04:57:48.274Z,7.41
2022-12-28T04:58:48.256Z,7.40
2022-12-28T04:59:48.246Z,7.40
2022-12-28T05:00:48.297Z,7.39
2022-12-28T05:01:48.262Z,7.39
2022-12-28T05:02:48.284Z,7.38
2022-12-28T05:03:54.765Z,7.37
2022-12-28T05:04:49.196Z,7.36
2022-12-28T05:05:48.167Z,7.35
2022-12-28T05:06:48.176Z,7.34
2022-12-28T05:07:48.137Z,7.33
2022-12-28T05:08:48.144Z,7.33
2022-12-28T05:09:48.126Z,7.33
2022-12-28T05:10:48.130Z,7.33
2022-12-28T05:11:48.118Z,7.34
2022-12-28T05:12:48.101Z,7.34
2022-12-28T05:13:48.087Z,7.35
2022-12-28T05:14:48.081Z,7.35
2022-12-28T05:15:48.139Z,7.36
2022-12-28T05:16:48.082Z,7.36
2022-12-28T05:17:48.032Z,7.37
2022-12-28T05:18:48.039Z,7.38
2022-12-28T05:19:48.011Z,7.39
2022-12-28T05:20:48.007Z,7.42
2022-12-28T05:21:47.998Z,7.45
2022-12-28T05:22:48.010Z,7.49
2022-12-28T05:23:47.969Z,7.52
2022-12-28T05:24:47.969Z,7.55
2022-12-28T05:25:47.946Z,7.56
2022-12-28T05:26:47.957Z,7.57
2022-12-28T05:27:47.918Z,7.57
2022-12-28T05:28:47.937Z,7.57
2022-12-28T05:29:47.903Z,7.57
2022-12-28T05:30:47.901Z,7.56
2022-12-28T05:31:47.943Z,7.56
2022-12-28T05:32:47.878Z,7.56
2022-12-28T05:33:47.856Z,7.56
2022-12-28T05:34:47.851Z,7.57
2022-12-28T05:35:47.819Z,7.59
2022-12-28T05:36:47.847Z,7.61
2022-12-28T05:37:47.822Z,7.63
2022-12-28T05:38:47.849Z,7.67
2022-12-28T05:39:47.781Z,7.70
2022-12-28T05:40:47.785Z,7.73
2022-12-28T05:41:47.779Z,7.75
2022-12-28T05:42:51.532Z,7.78
2022-12-28T05:43:47.731Z,7.82
2022-12-28T05:44:47.738Z,7.87
2022-12-28T05:45:47.714Z,7.91
2022-12-28T05:46:47.739Z,7.95
2022-12-28T05:47:47.708Z,7.98
2022-12-28T05:48:47.710Z,8.01
2022-12-28T05:49:47.667Z,8.05
2022-12-28T05:50:47.689Z,8.09
2022-12-28T05:51:47.640Z,8.12
2022-12-28T05:52:47.677Z,8.14
2022-12-28T05:53:47.627Z,8.15
2022-12-28T05:54:47.620Z,8.16
2022-12-28T05:55:47.611Z,8.16
2022-12-28T05:56:47.606Z,8.17
2022-12-28T05:57:47.590Z,8.17
2022-12-28T05:58:47.588Z,8.18
2022-12-28T05:59:47.563Z,8.20
2022-12-28T06:00:47.556Z,8.23
2022-12-28T06:01:47.629Z,8.26
2022-12-28T06:02:47.624Z,8.29
2022-12-28T06:03:47.516Z,8.30
2022-12-28T06:04:47.517Z,8.31
2022-12-28T06:05:47.488Z,8.32
2022-12-28T06:06:47.482Z,8.33
2022-12-28T06:07:47.475Z,8.34
2022-12-28T06:08:47.475Z,8.34
2022-12-28T06:09:47.451Z,8.34
2022-12-28T06:10:47.432Z,8.34
2022-12-28T06:11:47.439Z,8.34
2022-12-28T06:12:47.425Z,8.35
2022-12-28T06:13:47.395Z,8.35
2022-12-28T06:14:47.397Z,8.37
2022-12-28T06:15:47.382Z,8.39
2022-12-28T06:16:47.457Z,8.41
2022-12-28T06:17:47.378Z,8.43
2022-12-28T06:18:47.386Z,8.44
2022-12-28T06:19:47.337Z,8.44
2022-12-28T06:20:50.168Z,8.44
2022-12-28T06:21:48.319Z,8.44
2022-12-28T06:22:47.312Z,8.45
2022-12-28T06:23:47.298Z,8.45
2022-12-28T06:24:47.289Z,8.46
2022-12-28T06:25:47.270Z,8.48
2022-12-28T06:26:47.265Z,8.49
2022-12-28T06:27:47.261Z,8.50
2022-12-28T06:28:47.246Z,8.51
2022-12-28T06:29:47.223Z,8.52
2022-12-28T06:30:52.360Z,8.56
2022-12-28T06:31:48.228Z,8.60
2022-12-28T06:32:47.207Z,8.63
2022-12-28T06:33:47.183Z,8.64
2022-12-28T06:34:47.174Z,8.64
2022-12-28T06:35:47.150Z,8.64
2022-12-28T06:36:47.160Z,8.64
2022-12-28T06:37:47.139Z,8.64
2022-12-28T06:38:47.131Z,8.64
2022-12-28T06:39:47.100Z,8.64
2022-12-28T06:41:12.423Z,8.65
2022-12-28T06:41:48.102Z,8.65
2022-12-28T06:42:47.089Z,8.65
2022-12-28T06:43:47.063Z,8.66
2022-12-28T06:44:47.058Z,8.66
2022-12-28T06:45:47.073Z,8.65
2022-12-28T06:46:47.040Z,8.65
2022-12-28T06:47:47.021Z,8.65
2022-12-28T06:48:47.022Z,8.65
2022-12-28T06:49:46.994Z,8.65
2022-12-28T06:50:46.986Z,8.66
2022-12-28T06:51:46.975Z,8.66
2022-12-28T06:52:46.979Z,8.67
2022-12-28T06:53:46.948Z,8.67
2022-12-28T06:54:46.943Z,8.68
2022-12-28T06:55:46.915Z,8.68
2022-12-28T06:56:46.933Z,8.70
2022-12-28T06:57:46.888Z,8.71
2022-12-28T06:58:46.902Z,8.73
2022-12-28T06:59:46.884Z,8.74
2022-12-28T07:00:46.916Z,8.75
2022-12-28T07:01:46.945Z,8.75
2022-12-28T07:02:46.927Z,8.76
2022-12-28T07:03:46.835Z,8.76
2022-12-28T07:04:46.861Z,8.76
2022-12-28T07:05:46.806Z,8.75
2022-12-28T07:06:46.816Z,8.74
2022-12-28T07:07:46.800Z,8.74
2022-12-28T07:08:46.796Z,8.74
2022-12-28T07:09:46.759Z,8.74
2022-12-28T07:10:46.767Z,8.75
2022-12-28T07:11:46.753Z,8.74
2022-12-28T07:12:46.765Z,8.74
2022-12-28T07:13:46.721Z,8.75
2022-12-28T07:14:46.719Z,8.76
2022-12-28T07:15:46.696Z,8.76
2022-12-28T07:16:46.694Z,8.76
2022-12-28T07:17:46.687Z,8.77
2022-12-28T07:18:46.684Z,8.77
2022-12-28T07:19:46.646Z,8.77
2022-12-28T07:20:46.660Z,8.78
2022-12-28T07:21:46.625Z,8.78
2022-12-28T07:22:46.632Z,8.78
2022-12-28T07:23:46.619Z,8.78
2022-12-28T07:24:46.600Z,8.78
2022-12-28T07:25:46.581Z,8.79
2022-12-28T07:26:46.584Z,8.79
2022-12-28T07:27:46.578Z,8.78
2022-12-28T07:28:46.547Z,8.77
2022-12-28T07:29:46.535Z,8.76
2022-12-28T07:30:46.569Z,8.75
2022-12-28T07:31:46.503Z,8.74
2022-12-28T07:32:46.522Z,8.74
2022-12-28T07:33:46.500Z,8.75
2022-12-28T07:34:46.496Z,8.76
2022-12-28T07:35:46.484Z,8.76
2022-12-28T07:36:46.465Z,8.77
2022-12-28T07:37:46.445Z,8.77
2022-12-28T07:38:46.445Z,8.76
2022-12-28T07:39:46.434Z,8.76
2022-12-28T07:40:46.428Z,8.76
2022-12-28T07:41:46.396Z,8.77
2022-12-28T07:42:46.397Z,8.79
2022-12-28T07:43:46.379Z,8.80
2022-12-28T07:44:49.098Z,8.82
2022-12-28T07:45:46.407Z,8.82
2022-12-28T07:46:46.359Z,8.81
2022-12-28T07:47:46.327Z,8.82
2022-12-28T07:48:46.339Z,8.83
2022-12-28T07:49:46.312Z,8.84
2022-12-28T07:50:46.325Z,8.84
2022-12-28T07:51:46.293Z,8.84
2022-12-28T07:52:46.289Z,8.83
2022-12-28T07:53:46.305Z,8.83
2022-12-28T07:54:46.306Z,8.84
2022-12-28T07:55:46.257Z,8.83
2022-12-28T07:56:47.294Z,8.83
2022-12-28T07:57:46.217Z,8.82
2022-12-28T07:59:18.399Z,9.89
2022-12-28T08:00:18.399Z,9.46
2022-12-28T08:01:18.452Z,9.17
2022-12-28T08:02:18.466Z,9.01
2022-12-28T08:03:18.381Z,8.91
2022-12-28T08:04:18.338Z,8.86
2022-12-28T08:05:18.351Z,8.83
2022-12-28T08:06:18.325Z,8.83
2022-12-28T08:07:18.292Z,8.84
2022-12-28T08:08:18.308Z,8.85
2022-12-28T08:09:18.280Z,8.86
2022-12-28T08:10:18.267Z,8.88
2022-12-28T08:11:18.269Z,8.89
2022-12-28T08:12:18.251Z,8.89
2022-12-28T08:13:18.234Z,8.88
2022-12-28T08:14:18.215Z,8.87
2022-12-28T08:15:18.216Z,8.86
2022-12-28T08:16:18.282Z,8.85
2022-12-28T08:17:21.200Z,8.84
2022-12-28T08:18:18.166Z,8.83
2022-12-28T08:19:18.178Z,8.83
2022-12-28T08:20:18.133Z,8.82
2022-12-28T08:21:18.147Z,8.82
2022-12-28T08:22:18.138Z,8.82
2022-12-28T08:23:18.126Z,8.81
2022-12-28T08:24:18.111Z,8.81
2022-12-28T08:25:18.121Z,8.81
2022-12-28T08:26:18.073Z,8.82
2022-12-28T08:27:18.093Z,8.82
2022-12-28T08:28:18.047Z,8.82
2022-12-28T08:29:18.069Z,8.82
2022-12-28T08:30:18.025Z,8.82
2022-12-28T08:31:18.058Z,8.82
2022-12-28T08:32:18.013Z,8.83
2022-12-28T08:33:18.013Z,8.83
2022-12-28T08:34:17.975Z,8.83
2022-12-28T08:35:17.997Z,8.83
2022-12-28T08:36:17.952Z,8.83
2022-12-28T08:37:17.976Z,8.84
2022-12-28T08:38:17.937Z,8.86
2022-12-28T08:39:17.950Z,8.88
2022-12-28T08:40:17.917Z,8.90
2022-12-28T08:41:17.922Z,8.92
2022-12-28T08:42:17.914Z,8.93
2022-12-28T08:43:17.894Z,8.94
2022-12-28T08:44:17.882Z,8.95
2022-12-28T08:45:17.873Z,8.95
2022-12-28T08:46:18.043Z,8.94
2022-12-28T08:47:17.898Z,8.94
2022-12-28T08:48:17.830Z,8.94
2022-12-28T08:49:17.825Z,8.94
2022-12-28T08:50:20.044Z,8.94
2022-12-28T08:51:17.827Z,8.95
2022-12-28T08:52:17.776Z,8.95
2022-12-28T08:53:17.784Z,8.96
2022-12-28T08:54:17.797Z,8.97
2022-12-28T08:55:17.760Z,8.98
2022-12-28T08:56:17.726Z,8.99
2022-12-28T08:57:17.735Z,8.99
2022-12-28T08:58:17.718Z,9.00
2022-12-28T08:59:17.701Z,9.00
2022-12-28T09:00:17.698Z,9.01
2022-12-28T09:01:17.795Z,9.01
2022-12-28T09:02:17.748Z,9.01
2022-12-28T09:03:17.767Z,9.01
2022-12-28T09:04:17.659Z,9.00
2022-12-28T09:05:17.631Z,9.00
2022-12-28T09:06:17.631Z,9.00
2022-12-28T09:07:17.612Z,9.01
2022-12-28T09:08:17.632Z,9.02
2022-12-28T09:09:17.703Z,9.02
2022-12-28T09:10:17.605Z,9.01
2022-12-28T09:11:17.543Z,9.01
2022-12-28T09:12:17.574Z,9.02
2022-12-28T09:13:17.534Z,9.02
2022-12-28T09:14:23.189Z,9.03
2022-12-28T09:15:18.528Z,9.05
2022-12-28T09:16:17.532Z,9.07
2022-12-28T09:17:17.482Z,9.09
2022-12-28T09:18:17.488Z,9.10
2022-12-28T09:19:17.459Z,9.11
2022-12-28T09:20:17.482Z,9.12
2022-12-28T09:21:17.438Z,9.13
2022-12-28T09:22:17.535Z,9.15
2022-12-28T09:23:17.417Z,9.18
2022-12-28T09:24:17.415Z,9.19
2022-12-28T09:25:17.428Z,9.21
2022-12-28T09:26:17.402Z,9.22
2022-12-28T09:27:17.383Z,9.23
2022-12-28T09:28:17.368Z,9.24
2022-12-28T09:29:17.342Z,9.25
2022-12-28T09:30:17.370Z,9.26
2022-12-28T09:31:17.341Z,9.26
2022-12-28T09:32:17.327Z,9.26
2022-12-28T09:33:17.293Z,9.26
2022-12-28T09:34:36.810Z,9.25
2022-12-28T09:35:18.311Z,9.24
2022-12-28T09:36:17.281Z,9.24
2022-12-28T09:37:17.269Z,9.23
2022-12-28T09:38:17.261Z,9.22
2022-12-28T09:39:17.542Z,9.23
2022-12-28T09:40:17.242Z,9.24
2022-12-28T09:41:17.220Z,9.27
2022-12-28T09:42:17.219Z,9.29
2022-12-28T09:43:17.207Z,9.30
2022-12-28T09:44:17.175Z,9.32
2022-12-28T09:45:17.179Z,9.34
2022-12-28T09:46:17.211Z,9.35
2022-12-28T09:47:17.179Z,9.36
2022-12-28T09:48:17.137Z,9.37
2022-12-28T09:49:17.118Z,9.38
2022-12-28T09:50:17.230Z,9.38
2022-12-28T09:51:17.088Z,9.39
2022-12-28T09:52:17.120Z,9.39
2022-12-28T09:53:17.063Z,9.39
2022-12-28T09:54:17.063Z,9.39
2022-12-28T09:55:17.050Z,9.38
2022-12-28T09:56:17.050Z,9.37
2022-12-28T09:57:17.016Z,9.37
2022-12-28T09:58:17.051Z,9.38
2022-12-28T09:59:17.017Z,9.38
2022-12-28T10:00:17.052Z,9.38
2022-12-28T10:01:17.110Z,9.38
2022-12-28T10:02:17.029Z,9.38
2022-12-28T10:03:17.039Z,9.39
2022-12-28T10:04:16.961Z,9.40
2022-12-28T10:05:16.953Z,9.42
2022-12-28T10:06:16.942Z,9.43
2022-12-28T10:07:16.920Z,9.44
2022-12-28T10:08:16.932Z,9.44
2022-12-28T10:09:16.891Z,9.44
2022-12-28T10:10:16.882Z,9.44
2022-12-28T10:11:16.861Z,9.44
2022-12-28T10:12:16.863Z,9.44
2022-12-28T10:13:37.449Z,9.44
2022-12-28T10:14:17.858Z,9.45
2022-12-28T10:15:16.856Z,9.45
2022-12-28T10:16:16.914Z,9.46
2022-12-28T10:17:16.799Z,9.47
2022-12-28T10:18:16.811Z,9.47
2022-12-28T10:19:16.771Z,9.48
2022-12-28T10:20:16.794Z,9.49
2022-12-28T10:21:16.742Z,9.50
2022-12-28T10:22:16.751Z,9.51
2022-12-28T10:23:16.720Z,9.52
2022-12-28T10:24:32.949Z,9.54
2022-12-28T10:25:17.721Z,9.57
2022-12-28T10:26:16.706Z,9.59
2022-12-28T10:27:16.678Z,9.60
2022-12-28T10:28:16.683Z,9.61
2022-12-28T10:29:16.649Z,9.61
2022-12-28T10:30:16.673Z,9.61
2022-12-28T10:31:16.681Z,9.61
2022-12-28T10:32:16.633Z,9.61
2022-12-28T10:33:16.600Z,9.60
2022-12-28T10:34:17.587Z,9.60
2022-12-28T10:35:16.605Z,9.61
2022-12-28T10:36:16.596Z,9.62
2022-12-28T10:37:16.605Z,9.62
2022-12-28T10:38:16.570Z,9.63
2022-12-28T10:39:16.547Z,9.63
2022-12-28T10:40:16.565Z,9.63
2022-12-28T10:41:17.132Z,9.63
2022-12-28T10:42:16.525Z,9.64
2022-12-28T10:43:16.494Z,9.65
2022-12-28T10:45:17.547Z,9.68
2022-12-28T10:46:16.499Z,9.70
2022-12-28T10:47:16.463Z,9.70
2022-12-28T10:48:16.469Z,9.71
2022-12-28T10:49:16.862Z,9.71
2022-12-28T10:50:36.717Z,9.72
2022-12-28T10:51:17.538Z,9.73
2022-12-28T10:52:16.405Z,9.74
2022-12-28T10:53:16.388Z,9.75
2022-12-28T10:54:16.430Z,9.76
2022-12-28T10:55:17.365Z,9.76
2022-12-28T10:57:17.327Z,9.78
2022-12-28T10:58:28.973Z,9.79
2022-12-28T10:59:17.307Z,9.80
2022-12-28T11:00:16.377Z,9.81
2022-12-28T11:01:18.031Z,9.83
2022-12-28T11:02:16.437Z,9.84
2022-12-28T11:03:16.267Z,9.84
2022-12-28T11:03:22.005Z,9.77
2022-12-28T11:04:16.278Z,9.86
2022-12-28T11:05:16.245Z,9.88
2022-12-28T11:06:18.798Z,9.90
2022-12-28T11:07:17.235Z,9.90
2022-12-28T11:08:16.231Z,9.91
2022-12-28T11:09:16.213Z,9.91
2022-12-28T11:10:16.229Z,9.91
2022-12-28T11:11:16.177Z,9.90
2022-12-28T11:12:16.197Z,9.90
2022-12-28T11:13:21.610Z,9.89
2022-12-28T11:14:17.182Z,9.88
2022-12-28T11:15:16.128Z,9.87
2022-12-28T11:16:16.185Z,9.86
2022-12-28T11:17:16.131Z,9.86
2022-12-28T11:18:16.123Z,9.85
2022-12-28T11:19:16.094Z,9.84
2022-12-28T11:20:16.141Z,9.83
2022-12-28T11:21:16.067Z,9.82
2022-12-28T11:22:16.087Z,9.82
2022-12-28T11:23:16.037Z,9.81
2022-12-28T11:24:16.066Z,9.81
2022-12-28T11:25:16.020Z,9.80
2022-12-28T11:26:16.017Z,9.80
2022-12-28T11:27:16.014Z,9.79
2022-12-28T11:28:16.052Z,9.79
2022-12-28T11:29:15.982Z,9.78
2022-12-28T11:30:17.688Z,9.77
2022-12-28T11:31:16.028Z,9.77
2022-12-28T11:32:15.981Z,9.76
2022-12-28T11:33:15.929Z,9.75
2022-12-28T11:34:15.938Z,9.75
2022-12-28T11:35:15.909Z,9.74
2022-12-28T11:36:15.902Z,9.72
2022-12-28T11:37:15.886Z,9.71
2022-12-28T11:38:15.906Z,9.70
2022-12-28T11:39:15.858Z,9.70
2022-12-28T11:40:15.902Z,9.71
2022-12-28T11:41:15.832Z,9.72
2022-12-28T11:43:16.808Z,9.74
2022-12-28T11:44:15.809Z,9.73
2022-12-28T11:45:15.790Z,9.72
2022-12-28T11:46:15.845Z,9.71
2022-12-28T11:47:15.797Z,9.70
2022-12-28T11:48:15.791Z,9.69
2022-12-28T11:49:15.739Z,9.68
2022-12-28T11:50:15.811Z,9.67
2022-12-28T11:51:15.719Z,9.67
2022-12-28T11:52:15.734Z,9.67
2022-12-28T11:53:15.701Z,9.66
2022-12-28T11:54:15.717Z,9.65
2022-12-28T11:55:15.677Z,9.65
2022-12-28T11:56:15.768Z,9.66
2022-12-28T11:57:15.647Z,9.66
2022-12-28T11:58:15.698Z,9.67
2022-12-28T11:59:15.667Z,9.68
2022-12-28T12:00:21.631Z,9.68
2022-12-28T12:01:16.668Z,9.67
2022-12-28T12:02:15.693Z,9.67
2022-12-28T12:03:15.621Z,9.66
2022-12-28T12:04:15.589Z,9.65
2022-12-28T12:05:15.585Z,9.64
2022-12-28T12:06:15.575Z,9.64
2022-12-28T12:07:15.535Z,9.64
2022-12-28T12:08:16.620Z,9.64
2022-12-28T12:09:15.513Z,9.64
2022-12-28T12:10:15.531Z,9.65
2022-12-28T12:11:15.493Z,9.66
2022-12-28T12:12:18.159Z,9.66
2022-12-28T12:13:15.472Z,9.66
2022-12-28T12:14:15.469Z,9.66
2022-12-28T12:15:15.450Z,9.66
2022-12-28T12:16:15.497Z,9.66
2022-12-28T12:17:15.430Z,9.66
2022-12-28T12:18:15.442Z,9.67
2022-12-28T12:19:15.390Z,9.67
2022-12-28T12:20:15.412Z,9.66
2022-12-28T12:21:16.139Z,9.66
2022-12-28T12:22:15.391Z,9.66
2022-12-28T12:23:15.346Z,9.66
2022-12-28T12:24:15.349Z,9.67
2022-12-28T12:25:15.328Z,9.67
2022-12-28T12:26:15.336Z,9.67
2022-12-28T12:27:15.324Z,9.68
2022-12-28T12:28:15.318Z,9.69
2022-12-28T12:29:15.289Z,9.71
2022-12-28T12:30:15.279Z,9.72
2022-12-28T12:31:15.318Z,9.73
2022-12-28T12:32:15.315Z,9.74
2022-12-28T12:33:15.391Z,9.75
2022-12-28T12:34:19.495Z,9.76
2022-12-28T12:35:15.211Z,9.76
2022-12-28T12:36:15.217Z,9.77
2022-12-28T12:37:15.214Z,9.78
2022-12-28T12:38:15.204Z,9.78
2022-12-28T12:39:15.165Z,9.79
2022-12-28T12:40:15.169Z,9.79
2022-12-28T12:41:15.151Z,9.81
2022-12-28T12:42:15.160Z,9.82
2022-12-28T12:43:15.156Z,9.82
2022-12-28T12:44:15.133Z,9.83
2022-12-28T12:45:15.102Z,9.84
2022-12-28T12:46:15.173Z,9.85
2022-12-28T12:47:15.070Z,9.86
2022-12-28T12:48:15.083Z,9.86
2022-12-28T12:49:15.087Z,9.86
2022-12-28T12:50:15.055Z,9.87
2022-12-28T12:51:15.029Z,9.86
2022-12-28T12:52:15.048Z,9.86
2022-12-28T12:53:15.015Z,9.85
2022-12-28T12:54:15.016Z,9.85
2022-12-28T12:55:15.028Z,9.84
2022-12-28T12:56:14.987Z,9.84
2022-12-28T12:57:14.968Z,9.83
2022-12-28T12:58:14.967Z,9.82
2022-12-28T12:59:14.939Z,9.82
2022-12-28T13:00:14.957Z,9.81
2022-12-28T13:01:15.031Z,9.82
2022-12-28T13:02:15.041Z,9.82
2022-12-28T13:03:14.920Z,9.83
2022-12-28T13:04:14.905Z,9.83
2022-12-28T13:05:14.895Z,9.83
2022-12-28T13:06:14.895Z,9.83
2022-12-28T13:07:14.857Z,9.83
2022-12-28T13:08:14.859Z,9.84
2022-12-28T13:09:14.828Z,9.85
2022-12-28T13:10:14.828Z,9.85
2022-12-28T13:11:14.819Z,9.85
2022-12-28T13:12:14.822Z,9.84
2022-12-28T13:13:14.796Z,9.84
2022-12-28T13:14:14.769Z,9.83
2022-12-28T13:15:14.750Z,9.83
2022-12-28T13:16:14.818Z,9.82
2022-12-28T13:17:14.748Z,9.82
2022-12-28T13:19:15.729Z,9.81
2022-12-28T13:20:14.698Z,9.81
2022-12-28T13:21:14.721Z,9.80
2022-12-28T13:22:14.698Z,9.79